Main page
METAR-TAF:

METAR-TAF

Airports :

Ouarzazate Airport

Ouarzazate, Morocco

latitude: 30-56N, longitude: 006-54W, elevation: 1139 m

Current weather observation

The report was made 36 minutes ago, at 07:00 UTC
Wind 1 kt from variable directions
Temperature 12°C
Humidity 82%
Pressure 1015 hPa
Visibility 10 km or more
Scattered clouds at a height of 3000 ft
Scattered clouds at a height of 10000 ft

METAR: GMMZ 080700Z VRB01KT 9999 SCT030 SCT100 12/09 Q1015 NOSIG

Time: 08:36 (07:36 UTC)

Forecast

The report was made 2 hours and 36 minutes ago, at 05:00 UTC
Forecast valid from 08 at 06 UTC to 09 at 12 UTC
Wind 6 kt from the North/Northwest
Visibility 10 km or more
Scattered clouds at a height of 3000 ft
Scattered clouds at a height of 10000 ft
Temporary
from 08 at 12 UTC to 08 at 22 UTC
Visibility: 4500 m
Broken clouds at a height of 3000 ft
Few clouds at a height of 4000 ft, Towering cumulus.
rain

TAF: GMMZ 080500Z 0806/0912 34006KT 9999 SCT030 SCT100 TEMPO 0812/0822 4500 RA BKN030 FEW040TCU

Weather observations and forecasts of more than 4000 airports (METAR and TAF reports).

The available stations are represented by yellow and red dots on the map.

Hover mouse over dot to see the name of the station.

Then click to see weather observations and forecasts.

To change the map : click on the green buttons with a black cross to zoom in, on the green button with a dash to zoom out, or on the green arrows for adjacent maps.


METAR-TAF: